createdAt,value
2019-02-15T00:00:43.290Z,99279.84
2019-02-15T00:03:11.182Z,99275.50
2019-02-15T00:05:42.774Z,99269.33
2019-02-15T00:08:10.851Z,99286.30
2019-02-15T00:10:38.799Z,99281.02
2019-02-15T00:13:13.246Z,99277.52
2019-02-15T00:15:36.896Z,99269.69
2019-02-15T00:18:24.478Z,99279.89
2019-02-15T00:20:57.020Z,99264.19
2019-02-15T00:23:25.062Z,99265.89
2019-02-15T00:25:52.955Z,99264.17
2019-02-15T00:28:20.928Z,99259.92
2019-02-15T00:30:48.926Z,99262.07
2019-02-15T00:33:16.943Z,99262.42
2019-02-15T00:35:44.720Z,99268.03
2019-02-15T00:38:12.796Z,99270.65
2019-02-15T00:40:40.753Z,99269.88
2019-02-15T00:43:08.828Z,99259.48
2019-02-15T00:45:45.446Z,99267.80
2019-02-15T00:48:16.273Z,99266.02
2019-02-15T00:50:52.795Z,99265.52
2019-02-15T00:53:49.117Z,99262.84
2019-02-15T00:56:30.202Z,99265.00
2019-02-15T00:59:17.713Z,99257.69
2019-02-15T01:02:07.874Z,99250.34
2019-02-15T01:05:04.461Z,99250.83
2019-02-15T01:07:52.305Z,99252.16
2019-02-15T01:10:39.800Z,99249.12
2019-02-15T01:13:10.734Z,99242.18
2019-02-15T01:15:38.830Z,99243.48
2019-02-15T01:18:06.954Z,99235.61
2019-02-15T01:20:34.891Z,99237.84
2019-02-15T01:23:02.792Z,99228.19
2019-02-15T01:25:37.335Z,99228.20
2019-02-15T01:28:14.129Z,99224.75
2019-02-15T01:31:01.993Z,99220.00
2019-02-15T01:33:38.654Z,99213.90
2019-02-15T01:36:35.506Z,99213.95
2019-02-15T01:39:25.721Z,99209.47
2019-02-15T01:42:28.391Z,99207.28
2019-02-15T01:45:05.061Z,99215.14
2019-02-15T01:47:37.041Z,99219.09
2019-02-15T01:50:06.135Z,99216.05
2019-02-15T01:52:34.183Z,99212.98
2019-02-15T01:55:02.377Z,99208.20
2019-02-15T01:57:30.528Z,99203.79
2019-02-15T01:59:58.646Z,99210.63
2019-02-15T02:02:28.714Z,99210.18
2019-02-15T02:04:56.645Z,99203.67
2019-02-15T02:07:25.005Z,99198.95
2019-02-15T02:09:53.121Z,99209.30
2019-02-15T02:12:21.218Z,99204.97
2019-02-15T02:14:49.176Z,99209.73
2019-02-15T02:17:17.047Z,99211.92
2019-02-15T02:19:45.389Z,99220.09
2019-02-15T02:22:14.423Z,99213.17
2019-02-15T02:24:42.177Z,99221.75
2019-02-15T02:27:10.453Z,99222.42
2019-02-15T02:29:38.433Z,99217.66
2019-02-15T02:32:06.505Z,99239.87
2019-02-15T02:34:34.610Z,99232.97
2019-02-15T02:37:02.572Z,99232.92
2019-02-15T02:39:30.521Z,99225.86
2019-02-15T02:41:58.406Z,99221.41
2019-02-15T02:44:26.627Z,99213.88
2019-02-15T02:46:54.440Z,99219.50
2019-02-15T02:49:22.538Z,99216.42
2019-02-15T02:51:50.381Z,99225.52
2019-02-15T02:54:18.331Z,99227.38
2019-02-15T02:56:46.394Z,99223.42
2019-02-15T02:59:14.461Z,99229.45
2019-02-15T03:01:42.538Z,99221.70
2019-02-15T03:04:10.506Z,99223.88
2019-02-15T03:06:38.333Z,99218.72
2019-02-15T03:09:08.943Z,99222.30
2019-02-15T03:11:38.110Z,99223.21
2019-02-15T03:14:11.609Z,99225.41
2019-02-15T03:16:36.236Z,99218.91
2019-02-15T03:19:04.286Z,99240.12
2019-02-15T03:21:32.202Z,99234.91
2019-02-15T03:24:00.164Z,99229.73
2019-02-15T03:26:28.089Z,99227.55
2019-02-15T03:28:56.098Z,99225.74
2019-02-15T03:31:23.974Z,99214.41
2019-02-15T03:33:51.916Z,99223.37
2019-02-15T03:36:39.260Z,99222.39
2019-02-15T03:39:12.797Z,99211.13
2019-02-15T03:41:40.597Z,99210.69
2019-02-15T03:44:08.480Z,99202.06
2019-02-15T03:46:37.211Z,99191.79
2019-02-15T03:49:05.098Z,99194.72
2019-02-15T03:51:32.982Z,99189.16
2019-02-15T03:54:01.246Z,99196.98
2019-02-15T03:56:29.183Z,99193.57
2019-02-15T03:58:57.203Z,99209.17
2019-02-15T04:01:25.501Z,99200.48
2019-02-15T04:03:53.563Z,99202.18
2019-02-15T04:06:21.654Z,99213.03
2019-02-15T04:08:49.713Z,99209.97
2019-02-15T04:11:17.815Z,99208.68
2019-02-15T04:13:45.859Z,99200.03
2019-02-15T04:16:13.909Z,99197.42
2019-02-15T04:18:41.772Z,99198.27
2019-02-15T04:21:09.893Z,99199.05
2019-02-15T04:23:37.950Z,99204.61
2019-02-15T04:26:05.995Z,99203.64
2019-02-15T04:28:34.043Z,99205.00
2019-02-15T04:31:02.313Z,99205.11
2019-02-15T04:33:30.159Z,99208.55
2019-02-15T04:35:58.246Z,99202.01
2019-02-15T04:38:26.259Z,99195.38
2019-02-15T04:40:54.326Z,99187.95
2019-02-15T04:43:22.137Z,99176.28
2019-02-15T04:45:50.422Z,99187.53
2019-02-15T04:48:18.362Z,99195.47
2019-02-15T04:50:46.279Z,99189.03
2019-02-15T04:53:14.289Z,99175.22
2019-02-15T04:55:42.265Z,99180.30
2019-02-15T04:58:10.081Z,99170.81
2019-02-15T05:00:38.216Z,99174.73
2019-02-15T05:03:06.073Z,99180.00
2019-02-15T05:05:34.095Z,99175.22
2019-02-15T05:08:01.931Z,99181.34
2019-02-15T05:10:29.841Z,99174.81
2019-02-15T05:12:57.706Z,99183.45
2019-02-15T05:15:25.634Z,99181.29
2019-02-15T05:17:53.445Z,99186.41
2019-02-15T05:20:21.906Z,99184.30
2019-02-15T05:22:49.765Z,99185.11
2019-02-15T05:25:17.972Z,99187.18
2019-02-15T05:27:45.827Z,99182.92
2019-02-15T05:30:13.868Z,99185.50
2019-02-15T05:32:42.825Z,99190.70
2019-02-15T05:35:10.939Z,99196.61
2019-02-15T05:37:38.999Z,99202.27
2019-02-15T05:40:06.924Z,99202.73
2019-02-15T05:42:35.107Z,99200.63
2019-02-15T05:45:04.441Z,99194.08
2019-02-15T05:47:33.692Z,99200.13
2019-02-15T05:50:01.518Z,99203.91
2019-02-15T05:52:29.627Z,99201.22
2019-02-15T05:54:57.518Z,99203.47
2019-02-15T05:57:25.581Z,99208.71
2019-02-15T05:59:53.360Z,99212.20
2019-02-15T06:02:21.248Z,99217.03
2019-02-15T06:04:49.089Z,99220.90
2019-02-15T06:07:17.449Z,99217.88
2019-02-15T06:09:45.447Z,99210.41
2019-02-15T06:12:13.584Z,99205.14
2019-02-15T06:14:41.379Z,99206.07
2019-02-15T06:17:09.336Z,99213.03
2019-02-15T06:19:37.193Z,99224.81
2019-02-15T06:22:05.264Z,99212.73
2019-02-15T06:24:33.162Z,99224.49
2019-02-15T06:27:01.113Z,99209.81
2019-02-15T06:29:28.985Z,99229.81
2019-02-15T06:31:56.934Z,99229.05
2019-02-15T06:34:24.726Z,99232.98
2019-02-15T06:36:52.787Z,99235.20
2019-02-15T06:39:20.578Z,99241.80
2019-02-15T06:41:48.544Z,99244.48
2019-02-15T06:44:17.612Z,99240.63
2019-02-15T06:46:45.460Z,99248.98
2019-02-15T06:49:13.490Z,99255.56
2019-02-15T06:51:41.300Z,99254.23
2019-02-15T06:54:09.111Z,99261.22
2019-02-15T06:56:37.040Z,99267.80
2019-02-15T06:59:16.949Z,99269.14
2019-02-15T07:01:50.751Z,99276.64
2019-02-15T07:04:26.422Z,99274.74
2019-02-15T07:06:54.309Z,99273.83
2019-02-15T07:09:22.123Z,99263.55
2019-02-15T07:11:50.336Z,99274.47
2019-02-15T07:14:18.128Z,99272.40
2019-02-15T07:16:46.101Z,99279.92
2019-02-15T07:19:14.103Z,99282.75
2019-02-15T07:21:42.178Z,99278.11
2019-02-15T07:24:10.134Z,99262.46
2019-02-15T07:26:37.856Z,99274.25
2019-02-15T07:29:05.490Z,99275.52
2019-02-15T07:31:33.065Z,99278.48
2019-02-15T07:34:00.799Z,99282.73
2019-02-15T07:36:28.380Z,99286.13
2019-02-15T07:38:56.295Z,99300.09
2019-02-15T07:41:24.283Z,99297.32
2019-02-15T07:43:52.221Z,99294.45
2019-02-15T07:46:20.316Z,99296.59
2019-02-15T07:48:48.083Z,99288.96
2019-02-15T07:51:16.088Z,99287.08
2019-02-15T07:53:43.766Z,99288.83
2019-02-15T07:56:11.631Z,99293.84
2019-02-15T07:58:39.417Z,99293.81
2019-02-15T08:01:07.075Z,99293.12
2019-02-15T08:03:34.642Z,99291.41
2019-02-15T08:06:02.254Z,99290.50
2019-02-15T08:08:29.927Z,99296.79
2019-02-15T08:10:57.547Z,99285.47
2019-02-15T08:13:25.153Z,99284.87
2019-02-15T08:15:52.678Z,99284.85
2019-02-15T08:18:20.333Z,99282.17
2019-02-15T08:20:48.062Z,99272.84
2019-02-15T08:23:15.992Z,99278.94
2019-02-15T08:25:43.599Z,99280.72
2019-02-15T08:28:11.604Z,99287.52
2019-02-15T08:30:39.653Z,99277.53
2019-02-15T08:33:07.621Z,99280.78
2019-02-15T08:35:35.162Z,99275.70
2019-02-15T08:38:02.772Z,99270.55
2019-02-15T08:40:30.324Z,99272.09
2019-02-15T08:42:57.906Z,99263.84
2019-02-15T08:45:25.546Z,99277.83
2019-02-15T08:47:53.220Z,99267.34
2019-02-15T08:50:20.862Z,99268.98
2019-02-15T08:52:48.499Z,99270.52
2019-02-15T08:55:16.067Z,99267.86
2019-02-15T08:57:43.714Z,99270.20
2019-02-15T09:00:11.322Z,99273.70
2019-02-15T09:02:38.918Z,99270.30
2019-02-15T09:05:08.182Z,99264.96
2019-02-15T09:07:35.792Z,99256.09
2019-02-15T09:10:04.775Z,99258.17
2019-02-15T09:12:32.890Z,99261.20
2019-02-15T09:15:00.975Z,99259.76
2019-02-15T09:17:29.019Z,99252.68
2019-02-15T09:19:56.942Z,99245.64
2019-02-15T09:22:24.936Z,99248.59
2019-02-15T09:24:52.489Z,99258.66
2019-02-15T09:27:28.666Z,99255.53
2019-02-15T09:29:56.283Z,99252.73
2019-02-15T09:32:23.989Z,99252.88
2019-02-15T09:34:51.877Z,99253.80
2019-02-15T09:37:19.484Z,99249.48
2019-02-15T09:39:47.055Z,99263.80
2019-02-15T09:42:14.646Z,99260.53
2019-02-15T09:44:42.230Z,99258.36
2019-02-15T09:47:09.851Z,99263.45
2019-02-15T09:49:37.506Z,99266.23
2019-02-15T09:52:05.130Z,99275.47
2019-02-15T09:54:32.682Z,99273.79
2019-02-15T09:57:00.291Z,99277.67
2019-02-15T09:59:27.828Z,99274.90
2019-02-15T10:01:55.426Z,99274.08
2019-02-15T10:04:23.081Z,99272.75
2019-02-15T10:06:50.796Z,99268.48
2019-02-15T10:09:18.437Z,99250.52
2019-02-15T10:11:46.009Z,99258.10
2019-02-15T10:14:13.625Z,99254.69
2019-02-15T10:16:41.206Z,99258.02
2019-02-15T10:19:09.848Z,99262.31
2019-02-15T10:21:37.496Z,99262.86
2019-02-15T10:24:05.127Z,99267.09
2019-02-15T10:26:32.724Z,99267.75
2019-02-15T10:29:00.368Z,99256.90
2019-02-15T10:31:28.330Z,99260.94
2019-02-15T10:33:55.963Z,99272.23
2019-02-15T10:36:23.535Z,99268.23
2019-02-15T10:38:51.162Z,99268.52
2019-02-15T10:41:18.750Z,99268.84
2019-02-15T10:43:46.389Z,99270.16
2019-02-15T10:46:13.994Z,99271.59
2019-02-15T10:48:41.583Z,99263.97
2019-02-15T10:51:09.165Z,99265.61
2019-02-15T10:53:36.810Z,99272.05
2019-02-15T10:56:04.442Z,99274.43
2019-02-15T10:58:33.059Z,99275.21
2019-02-15T11:01:00.637Z,99274.84
2019-02-15T11:03:28.207Z,99272.90
2019-02-15T11:05:56.861Z,99277.77
2019-02-15T11:08:24.514Z,99279.27
2019-02-15T11:10:52.128Z,99280.08
2019-02-15T11:13:19.729Z,99277.11
2019-02-15T11:15:47.294Z,99273.88
2019-02-15T11:18:15.003Z,99272.17
2019-02-15T11:20:42.625Z,99274.59
2019-02-15T11:23:10.255Z,99282.75
2019-02-15T11:25:37.816Z,99282.08
2019-02-15T11:28:05.403Z,99287.33
2019-02-15T11:30:32.975Z,99270.23
2019-02-15T11:33:00.571Z,99275.44
2019-02-15T11:35:28.155Z,99271.70
2019-02-15T11:37:55.738Z,99270.79
2019-02-15T11:40:23.340Z,99276.18
2019-02-15T11:42:50.977Z,99269.00
2019-02-15T11:45:18.717Z,99269.85
2019-02-15T11:47:46.321Z,99272.25
2019-02-15T11:50:13.988Z,99272.96
2019-02-15T11:52:41.525Z,99279.04
2019-02-15T11:55:09.270Z,99273.93
2019-02-15T11:57:36.918Z,99269.72
2019-02-15T12:00:13.843Z,99274.53
2019-02-15T12:02:34.791Z,99276.09
2019-02-15T12:05:02.496Z,99264.89
2019-02-15T12:07:30.086Z,99263.88
2019-02-15T12:09:57.781Z,99264.45
2019-02-15T12:12:25.342Z,99265.80
2019-02-15T12:14:53.082Z,99252.27
2019-02-15T12:17:20.727Z,99259.83
2019-02-15T12:19:48.432Z,99262.35
2019-02-15T12:22:16.148Z,99252.31
2019-02-15T12:24:43.797Z,99251.27
2019-02-15T12:27:11.508Z,99252.66
2019-02-15T12:29:39.115Z,99245.91
2019-02-15T12:32:06.685Z,99243.98
2019-02-15T12:34:34.312Z,99245.52
2019-02-15T12:37:01.878Z,99238.30
2019-02-15T12:39:29.559Z,99243.70
2019-02-15T12:41:57.181Z,99242.07
2019-02-15T12:44:24.815Z,99245.72
2019-02-15T12:46:52.444Z,99234.06
2019-02-15T12:49:20.045Z,99237.01
2019-02-15T12:51:47.678Z,99237.87
2019-02-15T12:54:15.280Z,99228.70
2019-02-15T12:56:42.834Z,99226.29
2019-02-15T12:59:10.504Z,99223.83
2019-02-15T13:01:38.145Z,99218.13
2019-02-15T13:04:05.831Z,99223.85
2019-02-15T13:06:33.386Z,99212.91
2019-02-15T13:09:01.002Z,99218.00
2019-02-15T13:11:28.585Z,99210.21
2019-02-15T13:13:56.249Z,99215.10
2019-02-15T13:16:23.784Z,99213.80
2019-02-15T13:18:51.426Z,99206.91
2019-02-15T13:21:18.989Z,99209.36
2019-02-15T13:23:46.691Z,99203.04
2019-02-15T13:26:14.268Z,99202.46
2019-02-15T13:28:44.848Z,99205.05
2019-02-15T13:31:12.380Z,99204.05
2019-02-15T13:33:39.991Z,99193.41
2019-02-15T13:36:07.558Z,99196.77
2019-02-15T13:38:35.234Z,99195.83
2019-02-15T13:41:02.897Z,99197.86
2019-02-15T13:43:30.597Z,99190.25
2019-02-15T13:45:58.328Z,99199.00
2019-02-15T13:48:25.964Z,99192.30
2019-02-15T13:50:53.713Z,99198.91
2019-02-15T13:53:21.417Z,99193.28
2019-02-15T13:55:49.054Z,99195.55
2019-02-15T13:58:16.652Z,99187.81
2019-02-15T14:00:44.359Z,99181.39
2019-02-15T14:03:11.943Z,99180.98
2019-02-15T14:05:42.363Z,99175.29
2019-02-15T14:08:09.992Z,99180.44
2019-02-15T14:10:37.553Z,99174.69
2019-02-15T14:13:05.221Z,99173.27
2019-02-15T14:15:32.832Z,99169.72
2019-02-15T14:18:00.430Z,99169.55
2019-02-15T14:20:27.978Z,99171.45
2019-02-15T14:22:58.031Z,99170.57
2019-02-15T14:25:26.022Z,99175.48
2019-02-15T14:27:54.434Z,99173.58
2019-02-15T14:30:21.942Z,99176.87
2019-02-15T14:32:49.588Z,99167.92
2019-02-15T14:35:17.155Z,99170.45
2019-02-15T14:37:45.416Z,99169.80
2019-02-15T14:40:13.160Z,99163.71
2019-02-15T14:42:40.751Z,99166.64
2019-02-15T14:45:08.810Z,99161.65
2019-02-15T14:47:36.459Z,99160.82
2019-02-15T14:50:04.289Z,99153.08
2019-02-15T14:52:31.964Z,99155.73
2019-02-15T14:54:59.590Z,99157.06
2019-02-15T14:57:28.160Z,99145.16
2019-02-15T14:59:55.808Z,99157.48
2019-02-15T15:02:23.347Z,99158.25
2019-02-15T15:04:50.958Z,99159.36
2019-02-15T15:07:18.654Z,99165.58
2019-02-15T15:09:46.314Z,99164.58
2019-02-15T15:12:13.901Z,99157.57
2019-02-15T15:14:41.571Z,99163.37
2019-02-15T15:17:09.142Z,99165.08
2019-02-15T15:19:36.744Z,99157.74
2019-02-15T15:22:04.341Z,99162.03
2019-02-15T15:24:34.890Z,99159.58
2019-02-15T15:27:02.451Z,99157.67
2019-02-15T15:29:30.054Z,99157.95
2019-02-15T15:31:57.660Z,99159.58
2019-02-15T15:34:25.228Z,99153.09
2019-02-15T15:36:52.960Z,99160.64
2019-02-15T15:39:20.632Z,99157.09
2019-02-15T15:41:48.320Z,99159.91
2019-02-15T15:44:15.997Z,99155.96
2019-02-15T15:46:43.612Z,99150.84
2019-02-15T15:49:11.275Z,99153.58
2019-02-15T15:51:39.086Z,99157.88
2019-02-15T15:54:06.824Z,99159.31
2019-02-15T15:56:34.479Z,99163.07
2019-02-15T15:59:02.093Z,99166.67
2019-02-15T16:01:29.783Z,99173.30
2019-02-15T16:03:59.987Z,99173.22
2019-02-15T16:06:27.645Z,99173.02
2019-02-15T16:08:55.345Z,99168.03
2019-02-15T16:11:23.008Z,99172.25
2019-02-15T16:13:50.717Z,99168.83
2019-02-15T16:16:18.508Z,99182.70
2019-02-15T16:18:46.220Z,99186.20
2019-02-15T16:21:14.601Z,99179.86
2019-02-15T16:23:42.341Z,99193.59
2019-02-15T16:26:10.071Z,99188.26
2019-02-15T16:28:37.799Z,99188.98
2019-02-15T16:31:05.484Z,99193.83
2019-02-15T16:33:33.177Z,99193.86
2019-02-15T16:36:00.934Z,99199.14
2019-02-15T16:38:28.639Z,99203.66
2019-02-15T16:40:59.032Z,99206.66
2019-02-15T16:43:26.758Z,99202.14
2019-02-15T16:45:54.418Z,99204.73
2019-02-15T16:48:21.989Z,99201.68
2019-02-15T16:50:49.659Z,99204.89
2019-02-15T16:53:17.192Z,99205.02
2019-02-15T16:55:44.842Z,99204.95
2019-02-15T16:58:12.519Z,99209.98
2019-02-15T17:00:40.206Z,99209.12
2019-02-15T17:03:07.752Z,99206.22
2019-02-15T17:05:35.446Z,99211.38
2019-02-15T17:08:03.084Z,99210.22
2019-02-15T17:10:30.731Z,99218.00
2019-02-15T17:12:58.297Z,99218.55
2019-02-15T17:15:25.896Z,99219.73
2019-02-15T17:17:53.472Z,99221.31
2019-02-15T17:20:21.045Z,99220.58
2019-02-15T17:22:48.683Z,99212.83
2019-02-15T17:25:16.448Z,99208.67
2019-02-15T17:27:44.017Z,99210.61
2019-02-15T17:30:11.550Z,99221.30
2019-02-15T17:32:40.189Z,99217.09
2019-02-15T17:35:08.171Z,99218.80
2019-02-15T17:37:35.792Z,99215.57
2019-02-15T17:40:03.805Z,99218.34
2019-02-15T17:42:31.505Z,99222.48
2019-02-15T17:44:59.178Z,99208.94
2019-02-15T17:47:26.782Z,99222.59
2019-02-15T17:49:54.345Z,99217.11
2019-02-15T17:52:21.982Z,99223.88
2019-02-15T17:54:49.572Z,99233.16
2019-02-15T17:57:17.200Z,99229.59
2019-02-15T17:59:44.810Z,99227.84
2019-02-15T18:02:12.399Z,99229.59
2019-02-15T18:04:40.064Z,99228.44
2019-02-15T18:07:07.728Z,99231.77
2019-02-15T18:09:35.386Z,99237.97
2019-02-15T18:12:03.028Z,99228.36
2019-02-15T18:14:30.601Z,99223.59
2019-02-15T18:16:59.129Z,99221.80
2019-02-15T18:19:26.875Z,99221.84
2019-02-15T18:21:54.457Z,99222.35
2019-02-15T18:24:22.096Z,99221.06
2019-02-15T18:26:49.720Z,99219.38
2019-02-15T18:29:17.335Z,99215.51
2019-02-15T18:31:45.446Z,99215.96
2019-02-15T18:34:13.849Z,99215.58
2019-02-15T18:36:41.410Z,99220.84
2019-02-15T18:39:09.411Z,99216.05
2019-02-15T18:41:36.932Z,99224.41
2019-02-15T18:44:04.660Z,99220.11
2019-02-15T18:46:32.201Z,99224.99
2019-02-15T18:49:00.557Z,99222.85
2019-02-15T18:51:28.334Z,99225.10
2019-02-15T18:53:56.283Z,99222.92
2019-02-15T18:56:24.144Z,99223.84
2019-02-15T18:58:51.787Z,99223.86
2019-02-15T19:01:19.362Z,99222.11
2019-02-15T19:03:47.002Z,99223.08
2019-02-15T19:06:14.625Z,99224.45
2019-02-15T19:08:42.329Z,99235.36
2019-02-15T19:11:09.887Z,99237.16
2019-02-15T19:13:37.598Z,99237.64
2019-02-15T19:16:05.184Z,99228.95
2019-02-15T19:18:32.955Z,99231.17
2019-02-15T19:21:00.838Z,99233.80
2019-02-15T19:23:28.498Z,99231.20
2019-02-15T19:25:56.200Z,99233.39
2019-02-15T19:28:23.880Z,99236.45
2019-02-15T19:30:51.465Z,99236.89
2019-02-15T19:33:19.126Z,99234.41
2019-02-15T19:35:46.722Z,99241.89
2019-02-15T19:38:14.541Z,99244.52
2019-02-15T19:40:42.182Z,99240.13
2019-02-15T19:43:10.203Z,99241.00
2019-02-15T19:45:37.868Z,99239.28
2019-02-15T19:48:05.549Z,99229.27
2019-02-15T19:50:33.167Z,99242.79
2019-02-15T19:53:00.758Z,99244.55
2019-02-15T19:55:28.444Z,99235.39
2019-02-15T19:57:55.981Z,99235.39
2019-02-15T20:00:24.378Z,99241.95
2019-02-15T20:02:51.952Z,99240.20
2019-02-15T20:05:19.613Z,99243.27
2019-02-15T20:07:47.183Z,99236.30
2019-02-15T20:10:16.621Z,99238.04
2019-02-15T20:12:46.309Z,99231.06
2019-02-15T20:15:14.748Z,99230.19
2019-02-15T20:17:42.856Z,99224.95
2019-02-15T20:20:12.386Z,99229.77
2019-02-15T20:22:40.382Z,99232.84
2019-02-15T20:25:09.176Z,99232.81
2019-02-15T20:27:37.247Z,99232.41
2019-02-15T20:30:07.362Z,99234.58
2019-02-15T20:32:35.345Z,99235.91
2019-02-15T20:35:03.391Z,99244.61
2019-02-15T20:37:31.361Z,99240.69
2019-02-15T20:39:59.375Z,99238.51
2019-02-15T20:42:27.594Z,99241.56
2019-02-15T20:44:55.718Z,99242.44
2019-02-15T20:47:24.085Z,99248.09
2019-02-15T20:49:58.093Z,99248.98
2019-02-15T20:52:22.212Z,99251.56
2019-02-15T20:54:50.142Z,99244.61
2019-02-15T20:57:18.152Z,99240.67
2019-02-15T20:59:46.258Z,99227.20
2019-02-15T21:02:14.464Z,99241.55
2019-02-15T21:04:42.589Z,99235.47
2019-02-15T21:07:10.904Z,99236.33
2019-02-15T21:09:38.865Z,99239.80
2019-02-15T21:12:06.824Z,99239.79
2019-02-15T21:14:36.151Z,99244.56
2019-02-15T21:17:04.198Z,99247.19
2019-02-15T21:19:32.021Z,99248.50
2019-02-15T21:21:59.956Z,99238.05
2019-02-15T21:24:28.069Z,99241.51
2019-02-15T21:26:55.930Z,99235.86
2019-02-15T21:29:25.493Z,99238.44
2019-02-15T21:31:53.378Z,99242.34
2019-02-15T21:34:21.452Z,99240.62
2019-02-15T21:36:49.340Z,99233.64
2019-02-15T21:39:17.382Z,99233.19
2019-02-15T21:41:45.341Z,99234.48
2019-02-15T21:44:13.318Z,99230.56
2019-02-15T21:46:41.628Z,99228.41
2019-02-15T21:49:09.573Z,99234.48
2019-02-15T21:51:37.570Z,99234.03
2019-02-15T21:54:05.521Z,99231.00
2019-02-15T21:56:33.479Z,99233.14
2019-02-15T21:59:01.567Z,99230.52
2019-02-15T22:01:29.393Z,99233.14
2019-02-15T22:03:57.009Z,99237.02
2019-02-15T22:06:24.603Z,99232.25
2019-02-15T22:08:52.321Z,99233.94
2019-02-15T22:11:19.883Z,99235.17
2019-02-15T22:13:47.542Z,99236.50
2019-02-15T22:16:15.265Z,99236.91
2019-02-15T22:18:43.230Z,99233.84
2019-02-15T22:21:11.125Z,99232.97
2019-02-15T22:23:39.295Z,99230.80
2019-02-15T22:26:07.379Z,99235.09
2019-02-15T22:28:35.192Z,99228.57
2019-02-15T22:31:04.333Z,99225.11
2019-02-15T22:33:32.623Z,99229.90
2019-02-15T22:36:00.207Z,99226.41
2019-02-15T22:38:27.934Z,99223.33
2019-02-15T22:41:15.855Z,99230.67
2019-02-15T22:43:44.366Z,99229.83
2019-02-15T22:46:11.955Z,99229.39
2019-02-15T22:48:39.705Z,99224.14
2019-02-15T22:51:07.290Z,99233.59
2019-02-15T22:53:34.993Z,99227.56
2019-02-15T22:56:02.572Z,99224.95
2019-02-15T22:58:31.381Z,99225.38
2019-02-15T23:01:11.389Z,99227.56
2019-02-15T23:03:40.112Z,99223.20
2019-02-15T23:06:07.665Z,99222.28
2019-02-15T23:08:35.309Z,99221.84
2019-02-15T23:11:02.860Z,99223.55
2019-02-15T23:13:30.557Z,99225.30
2019-02-15T23:15:58.092Z,99224.02
2019-02-15T23:18:25.727Z,99210.97
2019-02-15T23:20:53.369Z,99218.79
2019-02-15T23:23:21.086Z,99223.50
2019-02-15T23:25:48.724Z,99217.75
2019-02-15T23:28:16.418Z,99221.24
2019-02-15T23:30:44.371Z,99209.94
2019-02-15T23:33:12.091Z,99206.45
2019-02-15T23:35:39.781Z,99208.63
2019-02-15T23:38:07.384Z,99210.34
2019-02-15T23:40:35.145Z,99203.83
2019-02-15T23:43:02.792Z,99203.41
2019-02-15T23:45:30.443Z,99192.48
2019-02-15T23:47:58.044Z,99206.02
2019-02-15T23:50:25.651Z,99202.53
2019-02-15T23:52:53.278Z,99201.19
2019-02-15T23:55:20.860Z,99202.04
2019-02-15T23:57:48.495Z,99192.46
